createdAt,value
2022-12-03T00:04:33.119Z,1.07
2022-12-03T00:09:34.782Z,1.20
2022-12-03T00:14:41.252Z,0.96
2022-12-03T00:19:45.732Z,1.12
2022-12-03T00:24:47.142Z,1.13
2022-12-03T00:29:48.592Z,1.10
2022-12-03T00:34:50.218Z,0.97
2022-12-03T00:39:51.732Z,0.89
2022-12-03T00:44:53.531Z,1.05
2022-12-03T00:49:55.075Z,1.04
2022-12-03T00:54:56.616Z,1.00
2022-12-03T00:59:58.149Z,1.01
2022-12-03T01:04:59.720Z,1.02
2022-12-03T01:10:01.253Z,0.90
2022-12-03T01:15:02.858Z,0.94
2022-12-03T01:20:05.752Z,0.89
2022-12-03T01:25:07.428Z,1.02
2022-12-03T01:30:10.746Z,0.99
2022-12-03T01:35:12.224Z,1.00
2022-12-03T01:40:19.443Z,1.07
2022-12-03T01:45:23.698Z,0.98
2022-12-03T01:50:31.674Z,1.21
2022-12-03T01:55:33.207Z,1.02
2022-12-03T02:00:34.714Z,1.04
2022-12-03T02:05:37.370Z,1.03
2022-12-03T02:10:38.845Z,1.01
2022-12-03T02:15:40.639Z,1.14
2022-12-03T02:21:20.098Z,1.11
2022-12-03T02:26:21.719Z,0.85
2022-12-03T02:31:24.121Z,1.03
2022-12-03T02:36:25.729Z,0.99
2022-12-03T02:41:45.975Z,1.07
2022-12-03T02:46:47.448Z,1.19
2022-12-03T02:51:48.975Z,1.14
2022-12-03T02:56:50.521Z,1.21
2022-12-03T03:01:52.107Z,1.25
2022-12-03T03:06:53.599Z,1.14
2022-12-03T03:11:55.088Z,1.07
2022-12-03T03:16:56.670Z,1.14
2022-12-03T03:21:58.483Z,1.10
2022-12-03T03:26:59.987Z,1.12
2022-12-03T03:32:03.020Z,1.09
2022-12-03T03:37:04.614Z,1.08
2022-12-03T03:42:06.168Z,1.04
2022-12-03T03:47:07.678Z,1.03
2022-12-03T03:52:11.589Z,1.05
2022-12-03T03:57:13.098Z,1.08
2022-12-03T04:02:19.668Z,1.19
2022-12-03T04:07:21.092Z,1.14
2022-12-03T04:12:40.963Z,1.08
2022-12-03T04:17:42.438Z,1.14
2022-12-03T04:22:43.864Z,1.18
2022-12-03T04:28:04.270Z,1.23
2022-12-03T04:33:24.148Z,1.21
2022-12-03T04:38:25.577Z,1.21
2022-12-03T04:43:32.488Z,1.22
2022-12-03T04:48:33.930Z,1.35
2022-12-03T04:53:36.297Z,1.35
2022-12-03T04:58:37.871Z,1.20
2022-12-03T05:03:39.716Z,1.19
2022-12-03T05:08:41.152Z,1.35
2022-12-03T05:13:43.197Z,1.28
2022-12-03T05:18:44.921Z,1.26
2022-12-03T05:23:46.350Z,1.31
2022-12-03T05:28:48.017Z,1.30
2022-12-03T05:33:49.439Z,1.37
2022-12-03T05:38:50.876Z,1.42
2022-12-03T05:43:52.340Z,1.53
2022-12-03T05:48:53.796Z,1.48
2022-12-03T05:53:55.274Z,1.45
2022-12-03T05:58:56.680Z,1.48
2022-12-03T06:03:58.177Z,1.70
2022-12-03T06:08:59.695Z,1.61
2022-12-03T06:14:01.390Z,1.56
2022-12-03T06:19:02.843Z,1.59
2022-12-03T06:24:04.535Z,1.67
2022-12-03T06:29:05.948Z,1.60
2022-12-03T06:34:07.460Z,1.59
2022-12-03T06:39:08.960Z,1.53
2022-12-03T06:44:10.922Z,1.61
2022-12-03T06:49:12.333Z,1.57
2022-12-03T06:54:13.796Z,1.54
2022-12-03T06:59:15.210Z,1.64
2022-12-03T07:04:16.636Z,1.69
2022-12-03T07:09:18.185Z,1.63
2022-12-03T07:14:19.818Z,1.71
2022-12-03T07:19:21.284Z,1.72
2022-12-03T07:24:22.708Z,1.68
2022-12-03T07:29:24.733Z,1.66
2022-12-03T07:34:26.251Z,1.66
2022-12-03T07:39:27.670Z,1.64
2022-12-03T07:44:31.300Z,1.56
2022-12-03T07:49:33.383Z,1.63
2022-12-03T07:54:35.003Z,1.72
2022-12-03T07:59:36.448Z,1.69
2022-12-03T08:04:37.851Z,1.73
2022-12-03T08:09:40.835Z,1.77
2022-12-03T08:14:42.594Z,1.79
2022-12-03T08:19:47.170Z,1.64
2022-12-03T08:24:48.607Z,1.85
2022-12-03T08:29:50.023Z,1.91
2022-12-03T08:34:51.686Z,2.00
2022-12-03T08:39:54.860Z,2.12
2022-12-03T08:44:57.165Z,2.03
2022-12-03T08:50:24.997Z,2.21
2022-12-03T08:55:36.980Z,1.96
2022-12-03T09:00:38.450Z,2.19
2022-12-03T09:05:40.536Z,2.11
2022-12-03T09:10:42.008Z,2.21
2022-12-03T09:15:43.447Z,2.27
2022-12-03T09:20:44.934Z,2.38
2022-12-03T09:25:46.348Z,2.38
2022-12-03T09:30:47.851Z,2.52
2022-12-03T09:35:49.343Z,2.51
2022-12-03T09:40:50.887Z,2.43
2022-12-03T09:45:52.516Z,2.52
2022-12-03T09:50:54.251Z,2.70
2022-12-03T09:55:59.021Z,2.84
2022-12-03T10:01:00.546Z,2.81
2022-12-03T10:06:02.101Z,2.83
2022-12-03T10:11:03.683Z,2.88
2022-12-03T10:16:05.433Z,2.82
2022-12-03T10:21:19.487Z,2.76
2022-12-03T10:26:39.226Z,2.73
2022-12-03T10:31:40.817Z,2.89
2022-12-03T10:36:42.254Z,2.87
2022-12-03T10:41:44.693Z,2.94
2022-12-03T10:47:03.978Z,2.90
2022-12-03T10:52:06.906Z,3.00
2022-12-03T10:57:09.311Z,2.91
2022-12-03T11:02:21.087Z,2.77
2022-12-03T11:07:24.376Z,2.93
2022-12-03T11:12:28.819Z,2.92
2022-12-03T11:17:49.774Z,2.91
2022-12-03T11:22:55.798Z,2.84
2022-12-03T11:28:12.831Z,2.95
2022-12-03T11:33:32.062Z,3.03
2022-12-03T11:38:52.943Z,2.86
2022-12-03T11:43:56.179Z,2.95
2022-12-03T11:48:59.770Z,3.00
2022-12-03T11:54:01.257Z,3.24
2022-12-03T11:59:04.567Z,3.33
2022-12-03T12:04:07.867Z,3.34
2022-12-03T12:09:09.863Z,3.28
2022-12-03T12:14:13.053Z,3.28
2022-12-03T12:19:43.167Z,3.39
2022-12-03T12:24:47.122Z,3.40
2022-12-03T12:30:12.879Z,3.31
2022-12-03T12:35:24.979Z,3.40
2022-12-03T12:40:29.263Z,3.35
2022-12-03T12:45:34.889Z,3.35
2022-12-03T12:50:44.672Z,3.34
2022-12-03T12:55:47.977Z,3.36
2022-12-03T13:00:55.696Z,3.47
2022-12-03T13:05:57.785Z,3.43
2022-12-03T13:11:03.046Z,3.49
2022-12-03T13:16:19.158Z,3.52
2022-12-03T13:21:22.790Z,3.50
2022-12-03T13:26:39.315Z,3.57
2022-12-03T13:31:44.969Z,3.53
2022-12-03T13:36:51.972Z,3.40
2022-12-03T13:42:31.510Z,3.51
2022-12-03T13:47:32.975Z,3.54
2022-12-03T13:52:34.901Z,3.38
2022-12-03T13:57:36.315Z,3.36
2022-12-03T14:02:37.770Z,3.29
2022-12-03T14:07:39.466Z,3.36
2022-12-03T14:12:41.005Z,3.33
2022-12-03T14:17:42.465Z,3.44
2022-12-03T14:22:43.962Z,3.42
2022-12-03T14:27:45.422Z,3.37
2022-12-03T14:32:47.458Z,3.23
2022-12-03T14:37:48.922Z,3.21
2022-12-03T14:42:50.401Z,3.16
2022-12-03T14:47:51.822Z,3.23
2022-12-03T14:52:53.406Z,3.19
2022-12-03T14:57:56.383Z,3.20
2022-12-03T15:02:57.821Z,3.20
2022-12-03T15:07:59.406Z,3.22
2022-12-03T15:13:00.989Z,3.18
2022-12-03T15:18:02.403Z,3.30
2022-12-03T15:23:03.898Z,3.29
2022-12-03T15:28:05.510Z,3.26
2022-12-03T15:33:06.943Z,3.20
2022-12-03T15:38:09.390Z,3.22
2022-12-03T15:43:11.116Z,3.25
2022-12-03T15:48:13.786Z,3.34
2022-12-03T15:53:15.248Z,3.35
2022-12-03T15:58:16.687Z,3.35
2022-12-03T16:03:18.167Z,3.34
2022-12-03T16:08:19.702Z,3.34
2022-12-03T16:13:21.235Z,3.38
2022-12-03T16:18:22.755Z,3.42
2022-12-03T16:23:24.231Z,3.35
2022-12-03T16:28:25.705Z,3.34
2022-12-03T16:33:28.031Z,3.37
2022-12-03T16:38:30.998Z,3.38
2022-12-03T16:43:35.605Z,3.39
2022-12-03T16:48:37.571Z,3.35
2022-12-03T16:53:38.998Z,3.36
2022-12-03T16:58:40.678Z,3.33
2022-12-03T17:03:42.322Z,3.32
2022-12-03T17:08:49.068Z,3.26
2022-12-03T17:13:50.986Z,3.32
2022-12-03T17:18:52.474Z,3.31
2022-12-03T17:23:53.891Z,3.33
2022-12-03T17:28:55.403Z,3.33
2022-12-03T17:33:57.857Z,3.36
2022-12-03T17:38:59.306Z,3.38
2022-12-03T17:44:03.558Z,3.39
2022-12-03T17:49:07.477Z,3.43
2022-12-03T17:54:08.900Z,3.39
2022-12-03T17:59:11.306Z,3.39
2022-12-03T18:04:12.778Z,3.41
2022-12-03T18:09:14.227Z,3.52
2022-12-03T18:14:15.732Z,3.45
2022-12-03T18:19:17.183Z,3.44
2022-12-03T18:24:18.710Z,3.44
2022-12-03T18:29:20.176Z,3.52
2022-12-03T18:34:21.614Z,3.57
2022-12-03T18:39:31.610Z,3.56
2022-12-03T18:44:33.931Z,3.64
2022-12-03T18:49:35.364Z,3.65
2022-12-03T18:54:36.787Z,3.69
2022-12-03T18:59:38.572Z,3.71
2022-12-03T19:04:39.980Z,3.69
2022-12-03T19:09:41.893Z,3.66
2022-12-03T19:14:43.420Z,3.58
2022-12-03T19:19:45.013Z,3.57
2022-12-03T19:24:46.503Z,3.66
2022-12-03T19:29:48.964Z,3.72
2022-12-03T19:34:50.450Z,3.59
2022-12-03T19:39:54.964Z,3.62
2022-12-03T19:44:56.573Z,3.72
2022-12-03T19:49:58.046Z,3.83
2022-12-03T19:54:59.633Z,3.68
2022-12-03T20:00:01.244Z,3.60
2022-12-03T20:05:03.053Z,3.65
2022-12-03T20:10:05.134Z,3.66
2022-12-03T20:15:06.857Z,3.73
2022-12-03T20:20:08.891Z,3.67
2022-12-03T20:25:10.481Z,3.70
2022-12-03T20:30:12.260Z,3.72
2022-12-03T20:35:13.783Z,3.74
2022-12-03T20:40:15.383Z,3.80
2022-12-03T20:45:16.890Z,3.86
2022-12-03T20:50:18.348Z,3.89
2022-12-03T20:55:19.774Z,3.85
2022-12-03T21:00:21.659Z,3.87
2022-12-03T21:05:23.176Z,3.94
2022-12-03T21:10:36.420Z,3.92
2022-12-03T21:15:37.894Z,3.92
2022-12-03T21:20:46.680Z,3.95
2022-12-03T21:25:48.096Z,3.91
2022-12-03T21:30:49.641Z,4.06
2022-12-03T21:35:51.098Z,3.95
2022-12-03T21:40:52.827Z,3.95
2022-12-03T21:45:54.293Z,4.03
2022-12-03T21:51:04.719Z,3.94
2022-12-03T21:56:12.004Z,3.93
2022-12-03T22:01:21.774Z,4.00
2022-12-03T22:06:24.466Z,3.96
2022-12-03T22:11:25.883Z,3.87
2022-12-03T22:16:27.339Z,3.81
2022-12-03T22:21:28.812Z,3.77
2022-12-03T22:26:30.224Z,3.69
2022-12-03T22:31:31.738Z,3.66
2022-12-03T22:36:33.174Z,3.63
2022-12-03T22:41:34.630Z,3.60
2022-12-03T22:46:36.160Z,3.60
2022-12-03T22:51:37.646Z,3.56
2022-12-03T22:56:39.685Z,3.54
2022-12-03T23:01:41.537Z,3.60
2022-12-03T23:06:43.660Z,3.65
2022-12-03T23:11:45.485Z,3.58
2022-12-03T23:16:47.389Z,3.69
2022-12-03T23:21:48.840Z,3.58
2022-12-03T23:26:50.294Z,3.59
2022-12-03T23:31:51.744Z,3.58
2022-12-03T23:36:53.179Z,3.59
2022-12-03T23:41:54.630Z,3.54
2022-12-03T23:46:56.083Z,3.57
2022-12-03T23:51:57.616Z,3.55
2022-12-03T23:56:59.284Z,3.49
